createdAt,value
2023-03-27T00:00:16.501Z,100.00
2023-03-27T00:02:46.858Z,100.00
2023-03-27T00:05:16.265Z,100.00
2023-03-27T00:07:44.601Z,100.00
2023-03-27T00:10:13.214Z,100.00
2023-03-27T00:12:44.155Z,100.00
2023-03-27T00:15:17.076Z,100.00
2023-03-27T00:17:47.581Z,100.00
2023-03-27T00:20:16.674Z,100.00
2023-03-27T00:22:45.250Z,100.00
2023-03-27T00:25:13.611Z,100.00
2023-03-27T00:27:43.393Z,100.00
2023-03-27T00:30:12.767Z,100.00
2023-03-27T00:32:41.141Z,100.00
2023-03-27T00:35:12.235Z,100.00
2023-03-27T00:37:40.836Z,100.00
2023-03-27T00:40:14.327Z,100.00
2023-03-27T00:42:44.540Z,100.00
2023-03-27T00:45:18.400Z,100.00
2023-03-27T00:47:48.968Z,100.00
2023-03-27T00:50:21.555Z,100.00
2023-03-27T00:52:54.394Z,100.00
2023-03-27T00:55:24.935Z,100.00
2023-03-27T00:58:01.057Z,100.00
2023-03-27T01:00:29.765Z,100.00
2023-03-27T01:03:01.020Z,100.00
2023-03-27T01:05:29.506Z,100.00
2023-03-27T01:08:00.578Z,100.00
2023-03-27T01:10:41.573Z,100.00
2023-03-27T01:13:29.370Z,100.00
2023-03-27T01:16:00.098Z,100.00
2023-03-27T01:18:41.899Z,100.00
2023-03-27T01:21:32.688Z,100.00
2023-03-27T01:24:42.060Z,100.00
2023-03-27T01:27:18.483Z,100.00
2023-03-27T01:30:07.773Z,100.00
2023-03-27T01:33:07.336Z,100.00
2023-03-27T01:35:54.834Z,100.00
2023-03-27T01:38:48.088Z,100.00
2023-03-27T01:41:26.926Z,100.00
2023-03-27T01:44:00.668Z,100.00
2023-03-27T01:46:35.455Z,100.00
2023-03-27T01:49:08.520Z,100.00
2023-03-27T01:51:42.807Z,100.00
2023-03-27T01:54:16.427Z,100.00
2023-03-27T01:56:53.415Z,100.00
2023-03-27T01:59:27.093Z,100.00
2023-03-27T02:02:01.439Z,100.00
2023-03-27T02:04:36.594Z,100.00
2023-03-27T02:07:12.406Z,100.00
2023-03-27T02:09:47.005Z,100.00
2023-03-27T02:12:20.035Z,100.00
2023-03-27T02:14:53.910Z,100.00
2023-03-27T02:17:26.291Z,100.00
2023-03-27T02:20:02.575Z,100.00
2023-03-27T02:22:37.417Z,100.00
2023-03-27T02:25:25.162Z,100.00
2023-03-27T02:28:11.044Z,100.00
2023-03-27T02:30:43.414Z,100.00
2023-03-27T02:33:19.376Z,100.00
2023-03-27T02:35:57.388Z,100.00
2023-03-27T02:38:33.708Z,100.00
2023-03-27T02:41:09.118Z,100.00
2023-03-27T02:44:00.827Z,100.00
2023-03-27T02:46:57.625Z,100.00
2023-03-27T02:49:32.613Z,100.00
2023-03-27T02:52:04.886Z,100.00
2023-03-27T02:54:36.931Z,100.00
2023-03-27T02:57:11.693Z,100.00
2023-03-27T03:00:12.636Z,100.00
2023-03-27T03:02:45.847Z,100.00
2023-03-27T03:05:20.957Z,100.00
2023-03-27T03:07:50.404Z,100.00
2023-03-27T03:10:18.926Z,100.00
2023-03-27T03:12:47.425Z,100.00
2023-03-27T03:15:18.526Z,100.00
2023-03-27T03:17:48.967Z,100.00
2023-03-27T03:20:17.611Z,100.00
2023-03-27T03:22:46.020Z,100.00
2023-03-27T03:25:19.736Z,100.00
2023-03-27T03:27:48.052Z,100.00
2023-03-27T03:30:18.287Z,100.00
2023-03-27T03:33:00.987Z,100.00
2023-03-27T03:35:29.424Z,100.00
2023-03-27T03:37:59.285Z,100.00
2023-03-27T03:40:28.069Z,100.00
2023-03-27T03:42:59.444Z,100.00
2023-03-27T03:45:31.920Z,100.00
2023-03-27T03:48:01.392Z,100.00
2023-03-27T03:50:29.705Z,100.00
2023-03-27T03:52:58.068Z,100.00
2023-03-27T03:55:26.617Z,100.00
2023-03-27T03:57:57.104Z,100.00
2023-03-27T04:00:28.494Z,100.00
2023-03-27T04:03:01.590Z,100.00
2023-03-27T04:05:29.779Z,100.00
2023-03-27T04:08:00.294Z,100.00
2023-03-27T04:10:49.085Z,100.00
2023-03-27T04:13:50.488Z,100.00
2023-03-27T04:16:29.565Z,100.00
2023-03-27T04:19:03.033Z,100.00
2023-03-27T04:21:33.124Z,100.00
2023-03-27T04:24:02.769Z,100.00
2023-03-27T04:26:43.682Z,100.00
2023-03-27T04:29:43.439Z,100.00
2023-03-27T04:32:37.783Z,100.00
2023-03-27T04:35:35.643Z,100.00
2023-03-27T04:38:18.977Z,100.00
2023-03-27T04:40:50.322Z,100.00
2023-03-27T04:43:19.901Z,100.00
2023-03-27T04:45:48.343Z,100.00
2023-03-27T04:48:17.350Z,100.00
2023-03-27T04:50:51.621Z,100.00
2023-03-27T04:53:36.393Z,100.00
2023-03-27T04:56:06.455Z,100.00
2023-03-27T04:58:40.996Z,100.00
2023-03-27T05:01:13.508Z,100.00
2023-03-27T05:04:02.343Z,100.00
2023-03-27T05:06:42.104Z,100.00
2023-03-27T05:09:14.619Z,100.00
2023-03-27T05:11:44.729Z,100.00
2023-03-27T05:14:14.982Z,100.00
2023-03-27T05:16:43.395Z,100.00
2023-03-27T05:19:12.276Z,100.00
2023-03-27T05:21:47.138Z,100.00
2023-03-27T05:24:17.480Z,100.00
2023-03-27T05:26:46.893Z,100.00
2023-03-27T05:29:16.684Z,100.00
2023-03-27T05:31:47.500Z,100.00
2023-03-27T05:34:50.910Z,100.00
2023-03-27T05:37:21.692Z,100.00
2023-03-27T05:40:16.125Z,100.00
2023-03-27T05:42:45.449Z,100.00
2023-03-27T05:45:14.255Z,100.00
2023-03-27T05:47:46.497Z,100.00
2023-03-27T05:50:15.822Z,100.00
2023-03-27T05:52:45.446Z,100.00
2023-03-27T05:55:14.865Z,100.00
2023-03-27T05:57:45.317Z,100.00
2023-03-27T06:00:14.306Z,100.00
2023-03-27T06:02:44.870Z,100.00
2023-03-27T06:05:18.283Z,100.00
2023-03-27T06:07:52.223Z,100.00
2023-03-27T06:10:21.899Z,100.00
2023-03-27T06:13:14.695Z,100.00
2023-03-27T06:16:06.442Z,100.00
2023-03-27T06:18:43.771Z,100.00
2023-03-27T06:21:14.493Z,100.00
2023-03-27T06:23:44.910Z,100.00
2023-03-27T06:26:15.830Z,100.00
2023-03-27T06:28:44.635Z,100.00
2023-03-27T06:31:14.719Z,100.00
2023-03-27T06:34:15.054Z,100.00
2023-03-27T06:37:04.965Z,100.00
2023-03-27T06:39:42.813Z,100.00
2023-03-27T06:42:11.528Z,100.00
2023-03-27T06:44:52.171Z,100.00
2023-03-27T06:47:51.698Z,100.00
2023-03-27T06:50:35.834Z,100.00
2023-03-27T06:53:05.893Z,100.00
2023-03-27T06:55:46.476Z,100.00
2023-03-27T06:58:15.027Z,100.00
2023-03-27T07:00:44.390Z,100.00
2023-03-27T07:03:33.858Z,100.00
2023-03-27T07:06:05.243Z,100.00
2023-03-27T07:08:49.196Z,100.00
2023-03-27T07:11:19.481Z,100.00
2023-03-27T07:14:00.402Z,100.00
2023-03-27T07:16:31.155Z,100.00
2023-03-27T07:19:01.895Z,100.00
2023-03-27T07:21:32.129Z,100.00
2023-03-27T07:24:01.322Z,100.00
2023-03-27T07:26:36.046Z,100.00
2023-03-27T07:29:33.438Z,100.00
2023-03-27T07:32:07.122Z,100.00
2023-03-27T07:34:49.103Z,100.00
2023-03-27T07:37:38.207Z,100.00
2023-03-27T07:40:40.787Z,100.00
2023-03-27T07:43:48.860Z,100.00
2023-03-27T07:46:17.319Z,100.00
2023-03-27T07:48:45.771Z,100.00
2023-03-27T07:51:18.782Z,100.00
2023-03-27T07:53:49.171Z,100.00
2023-03-27T07:56:21.941Z,100.00
2023-03-27T07:58:53.082Z,100.00
2023-03-27T08:01:22.804Z,100.00
2023-03-27T08:03:52.195Z,100.00
2023-03-27T08:06:21.806Z,100.00
2023-03-27T08:08:50.828Z,100.00
2023-03-27T08:11:30.301Z,100.00
2023-03-27T08:14:04.359Z,100.00
2023-03-27T08:16:36.341Z,100.00
2023-03-27T08:19:06.241Z,100.00
2023-03-27T08:21:39.290Z,100.00
2023-03-27T08:24:09.097Z,100.00
2023-03-27T08:27:03.486Z,100.00
2023-03-27T08:29:34.239Z,100.00
2023-03-27T08:32:02.639Z,100.00
2023-03-27T08:34:31.219Z,100.00
2023-03-27T08:36:59.601Z,100.00
2023-03-27T08:39:38.688Z,100.00
2023-03-27T08:42:18.957Z,100.00
2023-03-27T08:44:56.578Z,100.00
2023-03-27T08:47:45.960Z,100.00
2023-03-27T08:50:33.513Z,100.00
2023-03-27T08:53:19.361Z,100.00
2023-03-27T08:55:47.824Z,100.00
2023-03-27T08:58:21.514Z,100.00
2023-03-27T09:00:59.658Z,100.00
2023-03-27T09:03:29.774Z,100.00
2023-03-27T09:06:00.391Z,100.00
2023-03-27T09:08:43.841Z,100.00
2023-03-27T09:11:21.661Z,100.00
2023-03-27T09:13:59.001Z,100.00
2023-03-27T09:16:32.239Z,100.00
2023-03-27T09:19:07.824Z,100.00
2023-03-27T09:21:43.295Z,100.00
2023-03-27T09:24:27.117Z,100.00
2023-03-27T09:27:20.128Z,100.00
2023-03-27T09:30:05.636Z,100.00
2023-03-27T09:32:56.793Z,100.00
2023-03-27T09:35:25.392Z,100.00
2023-03-27T09:37:58.435Z,100.00
2023-03-27T09:40:33.398Z,100.00
2023-03-27T09:43:09.257Z,100.00
2023-03-27T09:45:41.582Z,100.00
2023-03-27T09:48:19.943Z,100.00
2023-03-27T09:50:49.970Z,100.00
2023-03-27T09:53:35.206Z,100.00
2023-03-27T09:56:16.709Z,100.00
2023-03-27T09:58:52.518Z,100.00
2023-03-27T10:01:29.342Z,100.00
2023-03-27T10:04:13.993Z,100.00
2023-03-27T10:06:47.500Z,100.00
2023-03-27T10:09:29.447Z,100.00
2023-03-27T10:12:09.242Z,100.00
2023-03-27T10:14:42.464Z,100.00
2023-03-27T10:17:22.784Z,100.00
2023-03-27T10:20:05.666Z,100.00
2023-03-27T10:22:39.777Z,100.00
2023-03-27T10:25:17.515Z,100.00
2023-03-27T10:27:53.516Z,100.00
2023-03-27T10:30:40.502Z,100.00
2023-03-27T10:33:30.852Z,100.00
2023-03-27T10:36:13.893Z,100.00
2023-03-27T10:38:44.015Z,100.00
2023-03-27T10:41:29.198Z,100.00
2023-03-27T10:43:59.554Z,100.00
2023-03-27T10:46:29.716Z,100.00
2023-03-27T10:49:16.174Z,100.00
2023-03-27T10:51:51.728Z,100.00
2023-03-27T10:54:43.696Z,100.00
2023-03-27T10:57:16.937Z,100.00
2023-03-27T10:59:50.634Z,100.00
2023-03-27T11:02:32.504Z,100.00
2023-03-27T11:05:05.307Z,100.00
2023-03-27T11:07:42.077Z,100.00
2023-03-27T11:10:17.746Z,100.00
2023-03-27T11:12:52.055Z,100.00
2023-03-27T11:15:30.041Z,100.00
2023-03-27T11:18:04.004Z,100.00
2023-03-27T11:20:52.641Z,100.00
2023-03-27T11:23:56.300Z,100.00
2023-03-27T11:26:48.993Z,100.00
2023-03-27T11:29:28.262Z,97.28
2023-03-27T11:32:00.443Z,100.00
2023-03-27T11:34:48.100Z,100.00
2023-03-27T11:37:41.749Z,100.00
2023-03-27T11:40:18.189Z,100.00
2023-03-27T11:42:47.890Z,93.86
2023-03-27T11:45:20.044Z,90.57
2023-03-27T11:48:05.176Z,91.17
2023-03-27T11:50:49.099Z,92.65
2023-03-27T11:53:41.130Z,96.07
2023-03-27T11:56:30.600Z,87.92
2023-03-27T11:59:22.078Z,93.65
2023-03-27T12:02:20.170Z,95.41
2023-03-27T12:04:55.604Z,100.00
2023-03-27T12:07:52.791Z,100.00
2023-03-27T12:10:29.632Z,100.00
2023-03-27T12:13:41.777Z,100.00
2023-03-27T12:16:32.812Z,100.00
2023-03-27T12:19:27.467Z,100.00
2023-03-27T12:22:24.588Z,100.00
2023-03-27T12:25:38.424Z,100.00
2023-03-27T12:28:44.733Z,100.00
2023-03-27T12:31:43.845Z,100.00
2023-03-27T12:34:19.228Z,100.00
2023-03-27T12:36:52.265Z,100.00
2023-03-27T12:39:26.061Z,100.00
2023-03-27T12:42:00.461Z,100.00
2023-03-27T12:44:59.969Z,100.00
2023-03-27T12:47:31.986Z,100.00
2023-03-27T12:50:15.201Z,100.00
2023-03-27T12:52:45.571Z,100.00
2023-03-27T12:55:36.202Z,100.00
2023-03-27T12:58:06.179Z,100.00
2023-03-27T13:01:00.142Z,100.00
2023-03-27T13:04:10.934Z,100.00
2023-03-27T13:06:47.718Z,100.00
2023-03-27T13:09:31.716Z,100.00
2023-03-27T13:12:37.374Z,100.00
2023-03-27T13:15:26.316Z,100.00
2023-03-27T13:18:19.017Z,100.00
2023-03-27T13:20:55.813Z,100.00
2023-03-27T13:23:39.292Z,100.00
2023-03-27T13:26:30.837Z,100.00
2023-03-27T13:29:02.069Z,100.00
2023-03-27T13:31:59.197Z,100.00
2023-03-27T13:35:26.667Z,100.00
2023-03-27T13:38:00.752Z,100.00
2023-03-27T13:40:36.653Z,100.00
2023-03-27T13:43:25.911Z,100.00
2023-03-27T13:46:05.912Z,100.00
2023-03-27T13:49:16.557Z,100.00
2023-03-27T13:53:00.993Z,100.00
2023-03-27T13:56:22.984Z,100.00
2023-03-27T13:59:41.406Z,100.00
2023-03-27T14:02:40.460Z,100.00
2023-03-27T14:05:35.285Z,100.00
2023-03-27T14:08:34.824Z,100.00
2023-03-27T14:11:38.076Z,100.00
2023-03-27T14:14:27.566Z,100.00
2023-03-27T14:17:10.964Z,100.00
2023-03-27T14:20:08.413Z,100.00
2023-03-27T14:22:44.926Z,100.00
2023-03-27T14:25:17.836Z,100.00
2023-03-27T14:27:54.996Z,100.00
2023-03-27T14:30:27.482Z,100.00
2023-03-27T14:33:26.329Z,100.00
2023-03-27T14:36:05.554Z,100.00
2023-03-27T14:38:38.170Z,100.00
2023-03-27T14:41:19.716Z,100.00
2023-03-27T14:43:57.195Z,100.00
2023-03-27T14:46:27.721Z,100.00
2023-03-27T14:49:00.584Z,100.00
2023-03-27T14:51:41.900Z,100.00
2023-03-27T14:54:26.919Z,100.00
2023-03-27T14:57:03.095Z,100.00
2023-03-27T14:59:37.100Z,100.00
2023-03-27T15:02:19.841Z,100.00
2023-03-27T15:04:50.127Z,100.00
2023-03-27T15:07:22.268Z,100.00
2023-03-27T15:10:04.030Z,100.00
2023-03-27T15:12:52.825Z,100.00
2023-03-27T15:15:34.434Z,100.00
2023-03-27T15:18:05.423Z,100.00
2023-03-27T15:20:37.321Z,100.00
2023-03-27T15:23:17.045Z,100.00
2023-03-27T15:25:56.093Z,100.00
2023-03-27T15:28:31.420Z,100.00
2023-03-27T15:31:04.196Z,100.00
2023-03-27T15:33:37.416Z,100.00
2023-03-27T15:36:09.781Z,100.00
2023-03-27T15:38:38.867Z,100.00
2023-03-27T15:41:37.887Z,100.00
2023-03-27T15:44:12.483Z,100.00
2023-03-27T15:46:54.082Z,100.00
2023-03-27T15:49:28.515Z,100.00
2023-03-27T15:51:57.793Z,100.00
2023-03-27T15:54:29.514Z,100.00
2023-03-27T15:57:10.967Z,100.00
2023-03-27T15:59:52.811Z,100.00
2023-03-27T16:02:28.552Z,100.00
2023-03-27T16:04:58.951Z,100.00
2023-03-27T16:07:32.433Z,100.00
2023-03-27T16:10:03.849Z,100.00
2023-03-27T16:12:35.634Z,100.00
2023-03-27T16:15:08.428Z,100.00
2023-03-27T16:17:45.479Z,100.00
2023-03-27T16:20:39.759Z,100.00
2023-03-27T16:23:08.692Z,100.00
2023-03-27T16:25:37.329Z,100.00
2023-03-27T16:28:09.011Z,100.00
2023-03-27T16:30:41.488Z,100.00
2023-03-27T16:33:15.793Z,100.00
2023-03-27T16:35:49.758Z,100.00
2023-03-27T16:38:22.223Z,100.00
2023-03-27T16:40:50.923Z,100.00
2023-03-27T16:43:19.577Z,100.00
2023-03-27T16:45:49.597Z,100.00
2023-03-27T16:48:19.857Z,100.00
2023-03-27T16:50:48.267Z,100.00
2023-03-27T16:53:16.628Z,100.00
2023-03-27T16:55:45.203Z,100.00
2023-03-27T16:58:13.498Z,100.00
2023-03-27T17:00:41.868Z,100.00
2023-03-27T17:03:12.098Z,100.00
2023-03-27T17:05:40.568Z,100.00
2023-03-27T17:08:08.863Z,100.00
2023-03-27T17:10:37.147Z,100.00
2023-03-27T17:13:05.484Z,100.00
2023-03-27T17:15:36.863Z,100.00
2023-03-27T17:18:05.332Z,100.00
2023-03-27T17:20:35.822Z,100.00
2023-03-27T17:23:06.591Z,100.00
2023-03-27T17:25:34.891Z,100.00
2023-03-27T17:28:03.197Z,100.00
2023-03-27T17:30:39.738Z,100.00
2023-03-27T17:33:13.932Z,100.00
2023-03-27T17:35:43.961Z,100.00
2023-03-27T17:38:12.370Z,100.00
2023-03-27T17:40:41.780Z,100.00
2023-03-27T17:43:12.443Z,100.00
2023-03-27T17:45:41.679Z,100.00
2023-03-27T17:48:10.795Z,100.00
2023-03-27T17:50:39.124Z,100.00
2023-03-27T17:53:08.838Z,100.00
2023-03-27T17:55:38.031Z,100.00
2023-03-27T17:58:09.792Z,100.00
2023-03-27T18:00:39.756Z,100.00
2023-03-27T18:03:09.384Z,100.00
2023-03-27T18:05:38.658Z,100.00
2023-03-27T18:08:09.631Z,100.00
2023-03-27T18:10:38.296Z,100.00
2023-03-27T18:13:08.775Z,100.00
2023-03-27T18:15:37.334Z,100.00
2023-03-27T18:18:06.032Z,100.00
2023-03-27T18:20:34.413Z,100.00
2023-03-27T18:23:03.448Z,100.00
2023-03-27T18:25:41.771Z,100.00
2023-03-27T18:28:10.864Z,100.00
2023-03-27T18:30:39.780Z,100.00
2023-03-27T18:33:08.631Z,100.00
2023-03-27T18:35:37.348Z,100.00
2023-03-27T18:38:06.719Z,100.00
2023-03-27T18:40:36.438Z,100.00
2023-03-27T18:43:04.802Z,100.00
2023-03-27T18:45:33.174Z,100.00
2023-03-27T18:48:03.987Z,100.00
2023-03-27T18:50:32.640Z,100.00
2023-03-27T18:53:01.607Z,100.00
2023-03-27T18:55:30.053Z,100.00
2023-03-27T18:57:59.778Z,100.00
2023-03-27T19:00:28.680Z,100.00
2023-03-27T19:02:57.174Z,100.00
2023-03-27T19:05:25.685Z,100.00
2023-03-27T19:07:57.605Z,100.00
2023-03-27T19:10:26.210Z,100.00
2023-03-27T19:13:16.016Z,100.00
2023-03-27T19:16:13.960Z,100.00
2023-03-27T19:19:12.674Z,100.00
2023-03-27T19:21:53.212Z,100.00
2023-03-27T19:24:28.191Z,100.00
2023-03-27T19:26:56.611Z,100.00
2023-03-27T19:29:26.308Z,100.00
2023-03-27T19:31:56.698Z,100.00
2023-03-27T19:34:40.025Z,100.00
2023-03-27T19:37:10.952Z,100.00
2023-03-27T19:39:39.287Z,100.00
2023-03-27T19:42:07.647Z,100.00
2023-03-27T19:44:39.546Z,100.00
2023-03-27T19:47:09.624Z,100.00
2023-03-27T19:49:37.987Z,100.00
2023-03-27T19:52:26.651Z,100.00
2023-03-27T19:54:55.145Z,100.00
2023-03-27T19:57:25.613Z,100.00
2023-03-27T19:59:55.317Z,100.00
2023-03-27T20:02:23.703Z,100.00
2023-03-27T20:04:52.606Z,100.00
2023-03-27T20:07:22.953Z,100.00
2023-03-27T20:09:51.484Z,100.00
2023-03-27T20:12:21.161Z,100.00
2023-03-27T20:15:02.952Z,100.00
2023-03-27T20:17:39.391Z,100.00
2023-03-27T20:20:10.306Z,100.00
2023-03-27T20:22:50.078Z,100.00
2023-03-27T20:25:23.091Z,100.00
2023-03-27T20:27:54.656Z,100.00
2023-03-27T20:30:23.058Z,100.00
2023-03-27T20:32:53.765Z,100.00
2023-03-27T20:35:24.831Z,100.00
2023-03-27T20:37:57.690Z,100.00
2023-03-27T20:40:31.368Z,100.00
2023-03-27T20:43:05.857Z,100.00
2023-03-27T20:45:34.350Z,100.00
2023-03-27T20:48:04.466Z,100.00
2023-03-27T20:50:35.105Z,100.00
2023-03-27T20:53:04.444Z,100.00
2023-03-27T20:55:39.217Z,100.00
2023-03-27T20:58:10.079Z,100.00
2023-03-27T21:00:38.610Z,100.00
2023-03-27T21:03:08.516Z,100.00
2023-03-27T21:05:38.269Z,100.00
2023-03-27T21:08:07.402Z,100.00
2023-03-27T21:10:36.565Z,100.00
2023-03-27T21:13:04.891Z,100.00
2023-03-27T21:15:33.669Z,100.00
2023-03-27T21:18:02.504Z,100.00
2023-03-27T21:20:34.647Z,100.00
2023-03-27T21:23:03.694Z,100.00
2023-03-27T21:25:35.883Z,100.00
2023-03-27T21:28:07.336Z,100.00
2023-03-27T21:30:47.170Z,100.00
2023-03-27T21:33:17.403Z,100.00
2023-03-27T21:35:48.945Z,100.00
2023-03-27T21:38:18.520Z,100.00
2023-03-27T21:40:47.276Z,100.00
2023-03-27T21:43:16.315Z,100.00
2023-03-27T21:45:46.514Z,100.00
2023-03-27T21:48:14.933Z,100.00
2023-03-27T21:50:43.299Z,100.00
2023-03-27T21:53:13.483Z,100.00
2023-03-27T21:55:42.430Z,100.00
2023-03-27T21:58:11.038Z,100.00
2023-03-27T22:02:41.128Z,100.00
2023-03-27T22:05:09.927Z,100.00
2023-03-27T22:07:40.372Z,100.00
2023-03-27T22:10:09.329Z,100.00
2023-03-27T22:12:38.280Z,100.00
2023-03-27T22:15:08.357Z,100.00
2023-03-27T22:17:38.976Z,100.00
2023-03-27T22:20:09.119Z,100.00
2023-03-27T22:22:38.357Z,100.00
2023-03-27T22:25:07.653Z,100.00
2023-03-27T22:27:35.938Z,100.00
2023-03-27T22:30:04.958Z,100.00
2023-03-27T22:32:33.240Z,100.00
2023-03-27T22:35:03.191Z,100.00
2023-03-27T22:37:31.500Z,100.00
2023-03-27T22:39:59.861Z,100.00
2023-03-27T22:42:30.584Z,100.00
2023-03-27T22:44:58.992Z,100.00
2023-03-27T22:47:27.460Z,100.00
2023-03-27T22:49:55.804Z,100.00
2023-03-27T22:52:25.568Z,100.00
2023-03-27T22:54:53.881Z,100.00
2023-03-27T22:57:22.314Z,100.00
2023-03-27T22:59:51.155Z,100.00
2023-03-27T23:02:19.931Z,100.00
2023-03-27T23:04:48.386Z,100.00
2023-03-27T23:07:16.680Z,100.00
2023-03-27T23:09:46.299Z,100.00
2023-03-27T23:12:14.540Z,100.00
2023-03-27T23:14:42.922Z,100.00
2023-03-27T23:17:11.273Z,100.00
2023-03-27T23:19:39.639Z,100.00
2023-03-27T23:22:10.089Z,100.00
2023-03-27T23:24:38.473Z,100.00
2023-03-27T23:27:08.560Z,100.00
2023-03-27T23:29:36.943Z,100.00
2023-03-27T23:32:05.803Z,100.00
2023-03-27T23:34:34.206Z,100.00
2023-03-27T23:37:02.507Z,100.00
2023-03-27T23:39:30.957Z,100.00
2023-03-27T23:41:59.345Z,100.00
2023-03-27T23:44:29.040Z,100.00
2023-03-27T23:46:57.336Z,100.00
2023-03-27T23:49:25.633Z,100.00
2023-03-27T23:51:53.930Z,100.00
2023-03-27T23:54:22.298Z,100.00
2023-03-27T23:56:52.792Z,100.00
2023-03-27T23:59:21.228Z,100.00
